Virgo Phoenix — 3FMO8 — position and weather

sailwx.info

Track history (hours):
 
Tides and Currents Weather Stations Pressure Air Temp Water Temp Dewpoint Dewpoint Depression Visibility Wind Speed Wind Dir Waves Ship Positions

Virgo Phoenix

Last reported at 2015-Jan-31 12:25 UTC. Time now 2015-Feb-01 10:14 UTC.
Position N 31°03' E 122°12'.

Length 96 m; draft 5.5 m.

Type: Ship (hazmat cat B). MMSI: 370795000.

Date/timePositionNaut miles runAvg speedWind from/ knotsBaromVisibWave heightAir tempDewpointWater temp
2015-Jan-31 12:25N 31°03' E 122°12'1011.2
2015-Jan-31 11:33N 31°05' E 122°01'1111.3
2015-Jan-31 10:33N 31°11' E 121°50'1413.5
2015-Jan-31 09:33N 31°21' E 121°39'1111.1
2015-Jan-31 08:33N 31°27' E 121°28'1313.3
2015-Jan-31 07:33N 31°36' E 121°17'1514.9
2015-Jan-31 06:33N 31°46' E 121°03'1212.1
2015-Jan-31 05:33N 31°54' E 120°53'1111.1
2015-Jan-31 04:33N 32°00' E 120°42'1212.5
2015-Jan-31 03:34N 32°02' E 120°28'4 3.5
2015-Jan-31 02:31N 31°58' E 120°27'0 0.0
2015-Jan-31 01:31N 31°58' E 120°27'0 0.0
2015-Jan-31 00:31N 31°58' E 120°27'0 0.0
2015-Jan-30 23:31N 31°58' E 120°27'0 0.0
2015-Jan-30 22:31N 31°58' E 120°27'0 0.0
2015-Jan-30 21:31N 31°58' E 120°27'0 0.0
2015-Jan-30 20:31N 31°58' E 120°27'0 0.0
2015-Jan-30 19:31N 31°58' E 120°27'0 0.0
2015-Jan-30 18:31N 31°58' E 120°27'0 0.0
2015-Jan-30 17:31N 31°58' E 120°27'0 0.0
2015-Jan-30 16:28N 31°58' E 120°27'0 0.0
2015-Jan-30 15:31N 31°58' E 120°27'0 0.0
2015-Jan-30 14:28N 31°58' E 120°27'0 0.0
2015-Jan-30 13:31N 31°58' E 120°27'0 0.0
2015-Jan-30 12:31N 31°58' E 120°27'0 0.0
2015-Jan-30 11:31N 31°58' E 120°27'0 0.0
2015-Jan-30 10:31N 31°58' E 120°27'4 3.8
2015-Jan-30 09:34N 32°02' E 120°27'5 4.6
2015-Jan-30 08:27N 32°01' E 120°33'0 0.0
2015-Jan-30 07:30N 32°01' E 120°33'0 0.0
2015-Jan-30 06:33N 32°01' E 120°33'0 0.1
2015-Jan-30 05:33N 32°01' E 120°33'0 0.0
2015-Jan-30 04:33N 32°01' E 120°33'0 0.0
2015-Jan-30 03:33N 32°01' E 120°33'0 0.0
2015-Jan-30 02:33N 32°01' E 120°33'0 0.1
2015-Jan-30 01:33N 32°01' E 120°33'0 0.0
2015-Jan-30 00:30N 32°01' E 120°33'0 0.0
2015-Jan-29 23:24N 32°01' E 120°33'0 0.0
2015-Jan-29 22:30N 32°01' E 120°33'0 0.0
2015-Jan-29 21:33N 32°01' E 120°33'0 0.0
2015-Jan-29 20:24N 32°01' E 120°33'0 0.0
2015-Jan-29 19:33N 32°01' E 120°33'0 0.0
2015-Jan-29 18:33N 32°01' E 120°33'0 0.0
2015-Jan-29 17:33N 32°01' E 120°33'0 0.0
2015-Jan-29 16:33N 32°01' E 120°33'0 0.0
2015-Jan-29 15:33N 32°01' E 120°33'0 0.0
2015-Jan-29 14:30N 32°01' E 120°33'0 0.0
2015-Jan-29 13:33N 32°01' E 120°33'0 0.0
2015-Jan-29 12:30N 32°01' E 120°33'0 0.0
2015-Jan-29 11:33N 32°01' E 120°33'0 0.0
2015-Jan-29 10:30N 32°01' E 120°33'0 0.0
2015-Jan-29 09:33N 32°01' E 120°33'0 0.0
2015-Jan-29 08:33N 32°01' E 120°33'0 0.0
2015-Jan-29 07:29N 32°01' E 120°33'0 0.0
2015-Jan-29 06:32N 32°01' E 120°33'0 0.1
2015-Jan-29 05:29N 32°01' E 120°33'0 0.1
2015-Jan-29 04:32N 32°01' E 120°33'0 0.1
2015-Jan-29 03:29N 32°01' E 120°33'0 0.0
2015-Jan-29 02:26N 32°01' E 120°33'7 7.9
2015-Jan-29 01:33N 32°00' E 120°41'1211.7
2015-Jan-29 00:33N 31°54' E 120°53'1712.3
2015-Jan-28 23:10N 31°43' E 121°08'711.7
2015-Jan-28 22:33N 31°38' E 121°15'6 6.1
2015-Jan-28 21:31N 31°34' E 121°20'0 0.1
2015-Jan-28 20:31N 31°34' E 121°20'0 0.0
2015-Jan-28 19:31N 31°34' E 121°20'0 0.0
2015-Jan-28 18:31N 31°34' E 121°20'0 0.0
2015-Jan-28 17:31N 31°34' E 121°20'0 0.0
2015-Jan-28 16:31N 31°34' E 121°20'0 0.1
2015-Jan-28 15:31N 31°34' E 121°20'0 0.1
2015-Jan-28 14:31N 31°34' E 121°20'0 0.1
2015-Jan-28 13:31N 31°34' E 121°20'0 0.1
2015-Jan-28 12:31N 31°34' E 121°20'5 5.1
2015-Jan-28 11:33N 31°31' E 121°24'9 9.4
2015-Jan-28 10:33N 31°24' E 121°33'10 9.6
2015-Jan-28 09:33N 31°19' E 121°42'1111.5
2015-Jan-28 08:34N 31°11' E 121°51'1212.2
2015-Jan-28 07:33N 31°05' E 122°03'1211.6
2015-Jan-28 06:33N 31°03' E 122°17'  
2015-Jan-24 03:26N 34°56' E 139°27'1213.2
2015-Jan-24 02:33N 35°04' E 139°37'1212.4
2015-Jan-24 01:33N 35°14' E 139°46'1211.7
2015-Jan-24 00:33N 35°25' E 139°44'4 0.2
2015-Jan-23 01:33N 35°30' E 139°44'3 2.4
2015-Jan-23 00:29N 35°27' E 139°45'0 0.0
2015-Jan-22 23:32N 35°27' E 139°45'0 0.0
2015-Jan-22 22:32N 35°27' E 139°45'0 0.0
2015-Jan-22 21:32N 35°27' E 139°45'0 0.0
2015-Jan-22 20:32N 35°27' E 139°45'0 0.0
2015-Jan-22 19:32N 35°27' E 139°45'0 0.1
2015-Jan-22 18:32N 35°27' E 139°45'0 0.1
2015-Jan-22 17:32N 35°27' E 139°45'1 1.1
2015-Jan-22 16:33N 35°26' E 139°46'1211.7
2015-Jan-22 15:34N 35°15' E 139°47'1312.6
2015-Jan-22 14:33N 35°03' E 139°41'  
Track history (hours):
 
Tides and Currents Weather Stations Pressure Air Temp Water Temp Dewpoint Dewpoint Depression Visibility Wind Speed Wind Dir Waves Ship Positions

Virgo Phoenix

Last reported at 2015-Jan-31 12:25 UTC. Time now 2015-Feb-01 10:14 UTC.
Position N 31°03' E 122°12'.

Length 96 m; draft 5.5 m.

Type: Ship (hazmat cat B). MMSI: 370795000.

Date/timePositionNaut miles runAvg speedWind from/ knotsBaromVisibWave heightAir tempDewpointWater temp
2015-Jan-31 12:25N 31°03' E 122°12'1011.2
2015-Jan-31 11:33N 31°05' E 122°01'1111.3
2015-Jan-31 10:33N 31°11' E 121°50'1413.5
2015-Jan-31 09:33N 31°21' E 121°39'1111.1
2015-Jan-31 08:33N 31°27' E 121°28'1313.3
2015-Jan-31 07:33N 31°36' E 121°17'1514.9
2015-Jan-31 06:33N 31°46' E 121°03'1212.1
2015-Jan-31 05:33N 31°54' E 120°53'1111.1
2015-Jan-31 04:33N 32°00' E 120°42'1212.5
2015-Jan-31 03:34N 32°02' E 120°28'4 3.5
2015-Jan-31 02:31N 31°58' E 120°27'0 0.0
2015-Jan-31 01:31N 31°58' E 120°27'0 0.0
2015-Jan-31 00:31N 31°58' E 120°27'0 0.0
2015-Jan-30 23:31N 31°58' E 120°27'0 0.0
2015-Jan-30 22:31N 31°58' E 120°27'0 0.0
2015-Jan-30 21:31N 31°58' E 120°27'0 0.0
2015-Jan-30 20:31N 31°58' E 120°27'0 0.0
2015-Jan-30 19:31N 31°58' E 120°27'0 0.0
2015-Jan-30 18:31N 31°58' E 120°27'0 0.0
2015-Jan-30 17:31N 31°58' E 120°27'0 0.0
2015-Jan-30 16:28N 31°58' E 120°27'0 0.0
2015-Jan-30 15:31N 31°58' E 120°27'0 0.0
2015-Jan-30 14:28N 31°58' E 120°27'0 0.0
2015-Jan-30 13:31N 31°58' E 120°27'0 0.0
2015-Jan-30 12:31N 31°58' E 120°27'0 0.0
2015-Jan-30 11:31N 31°58' E 120°27'0 0.0
2015-Jan-30 10:31N 31°58' E 120°27'4 3.8
2015-Jan-30 09:34N 32°02' E 120°27'5 4.6
2015-Jan-30 08:27N 32°01' E 120°33'0 0.0
2015-Jan-30 07:30N 32°01' E 120°33'0 0.0
2015-Jan-30 06:33N 32°01' E 120°33'0 0.1
2015-Jan-30 05:33N 32°01' E 120°33'0 0.0
2015-Jan-30 04:33N 32°01' E 120°33'0 0.0
2015-Jan-30 03:33N 32°01' E 120°33'0 0.0
2015-Jan-30 02:33N 32°01' E 120°33'0 0.1
2015-Jan-30 01:33N 32°01' E 120°33'0 0.0
2015-Jan-30 00:30N 32°01' E 120°33'0 0.0
2015-Jan-29 23:24N 32°01' E 120°33'0 0.0
2015-Jan-29 22:30N 32°01' E 120°33'0 0.0
2015-Jan-29 21:33N 32°01' E 120°33'0 0.0
2015-Jan-29 20:24N 32°01' E 120°33'0 0.0
2015-Jan-29 19:33N 32°01' E 120°33'0 0.0
2015-Jan-29 18:33N 32°01' E 120°33'0 0.0
2015-Jan-29 17:33N 32°01' E 120°33'0 0.0
2015-Jan-29 16:33N 32°01' E 120°33'0 0.0
2015-Jan-29 15:33N 32°01' E 120°33'0 0.0
2015-Jan-29 14:30N 32°01' E 120°33'0 0.0
2015-Jan-29 13:33N 32°01' E 120°33'0 0.0
2015-Jan-29 12:30N 32°01' E 120°33'0 0.0
2015-Jan-29 11:33N 32°01' E 120°33'0 0.0
2015-Jan-29 10:30N 32°01' E 120°33'0 0.0
2015-Jan-29 09:33N 32°01' E 120°33'0 0.0
2015-Jan-29 08:33N 32°01' E 120°33'0 0.0
2015-Jan-29 07:29N 32°01' E 120°33'0 0.0
2015-Jan-29 06:32N 32°01' E 120°33'0 0.1
2015-Jan-29 05:29N 32°01' E 120°33'0 0.1
2015-Jan-29 04:32N 32°01' E 120°33'0 0.1
2015-Jan-29 03:29N 32°01' E 120°33'0 0.0
2015-Jan-29 02:26N 32°01' E 120°33'7 7.9
2015-Jan-29 01:33N 32°00' E 120°41'1211.7
2015-Jan-29 00:33N 31°54' E 120°53'1712.3
2015-Jan-28 23:10N 31°43' E 121°08'711.7
2015-Jan-28 22:33N 31°38' E 121°15'6 6.1
2015-Jan-28 21:31N 31°34' E 121°20'0 0.1
2015-Jan-28 20:31N 31°34' E 121°20'0 0.0
2015-Jan-28 19:31N 31°34' E 121°20'0 0.0
2015-Jan-28 18:31N 31°34' E 121°20'0 0.0
2015-Jan-28 17:31N 31°34' E 121°20'0 0.0
2015-Jan-28 16:31N 31°34' E 121°20'0 0.1
2015-Jan-28 15:31N 31°34' E 121°20'0 0.1
2015-Jan-28 14:31N 31°34' E 121°20'0 0.1
2015-Jan-28 13:31N 31°34' E 121°20'0 0.1
2015-Jan-28 12:31N 31°34' E 121°20'5 5.1
2015-Jan-28 11:33N 31°31' E 121°24'9 9.4
2015-Jan-28 10:33N 31°24' E 121°33'10 9.6
2015-Jan-28 09:33N 31°19' E 121°42'1111.5
2015-Jan-28 08:34N 31°11' E 121°51'1212.2
2015-Jan-28 07:33N 31°05' E 122°03'1211.6
2015-Jan-28 06:33N 31°03' E 122°17'  
2015-Jan-24 03:26N 34°56' E 139°27'1213.2
2015-Jan-24 02:33N 35°04' E 139°37'1212.4
2015-Jan-24 01:33N 35°14' E 139°46'1211.7
2015-Jan-24 00:33N 35°25' E 139°44'4 0.2
2015-Jan-23 01:33N 35°30' E 139°44'3 2.4
2015-Jan-23 00:29N 35°27' E 139°45'0 0.0
2015-Jan-22 23:32N 35°27' E 139°45'0 0.0
2015-Jan-22 22:32N 35°27' E 139°45'0 0.0
2015-Jan-22 21:32N 35°27' E 139°45'0 0.0
2015-Jan-22 20:32N 35°27' E 139°45'0 0.0
2015-Jan-22 19:32N 35°27' E 139°45'0 0.1
2015-Jan-22 18:32N 35°27' E 139°45'0 0.1
2015-Jan-22 17:32N 35°27' E 139°45'1 1.1
2015-Jan-22 16:33N 35°26' E 139°46'1211.7
2015-Jan-22 15:34N 35°15' E 139°47'1312.6
2015-Jan-22 14:33N 35°03' E 139°41'  

Dump ship's entire track history